sensor_id;sensor_type;location;lat;lon;timestamp;P1;durP1;ratioP1;P2;durP2;ratioP2
84246;SDS011;74385;53.360;6.290;2024-02-26T00:00:34;4.13;;;2.25;;
84246;SDS011;74385;53.360;6.290;2024-02-26T00:03:00;2.95;;;2.17;;
84246;SDS011;74385;53.360;6.290;2024-02-26T00:05:26;3.90;;;2.20;;
84246;SDS011;74385;53.360;6.290;2024-02-26T00:07:52;2.47;;;1.60;;
84246;SDS011;74385;53.360;6.290;2024-02-26T00:10:18;2.80;;;1.67;;
84246;SDS011;74385;53.360;6.290;2024-02-26T00:12:45;2.35;;;1.83;;
84246;SDS011;74385;53.360;6.290;2024-02-26T00:15:11;2.70;;;1.25;;
84246;SDS011;74385;53.360;6.290;2024-02-26T00:17:37;3.00;;;1.63;;
84246;SDS011;74385;53.360;6.290;2024-02-26T00:20:03;4.75;;;1.48;;
84246;SDS011;74385;53.360;6.290;2024-02-26T00:22:33;2.63;;;1.50;;
84246;SDS011;74385;53.360;6.290;2024-02-26T00:24:59;2.70;;;1.55;;
84246;SDS011;74385;53.360;6.290;2024-02-26T00:27:25;2.08;;;1.75;;
84246;SDS011;74385;53.360;6.290;2024-02-26T00:29:51;2.83;;;2.22;;
84246;SDS011;74385;53.360;6.290;2024-02-26T00:32:17;2.75;;;2.13;;
84246;SDS011;74385;53.360;6.290;2024-02-26T00:34:43;3.08;;;1.98;;
84246;SDS011;74385;53.360;6.290;2024-02-26T00:37:09;2.25;;;2.05;;
84246;SDS011;74385;53.360;6.290;2024-02-26T00:39:35;3.30;;;1.83;;
84246;SDS011;74385;53.360;6.290;2024-02-26T00:42:01;2.17;;;1.98;;
84246;SDS011;74385;53.360;6.290;2024-02-26T00:44:28;3.90;;;1.60;;
84246;SDS011;74385;53.360;6.290;2024-02-26T00:46:54;3.65;;;1.30;;
84246;SDS011;74385;53.360;6.290;2024-02-26T00:49:20;1.92;;;1.33;;
84246;SDS011;74385;53.360;6.290;2024-02-26T00:51:46;1.98;;;1.50;;
84246;SDS011;74385;53.360;6.290;2024-02-26T00:54:12;1.48;;;1.10;;
84246;SDS011;74385;53.360;6.290;2024-02-26T00:56:38;2.28;;;1.20;;
84246;SDS011;74385;53.360;6.290;2024-02-26T00:59:04;2.22;;;1.38;;
84246;SDS011;74385;53.360;6.290;2024-02-26T01:01:31;2.20;;;1.50;;
84246;SDS011;74385;53.360;6.290;2024-02-26T01:03:57;6.85;;;1.80;;
84246;SDS011;74385;53.360;6.290;2024-02-26T01:06:23;3.50;;;1.60;;
84246;SDS011;74385;53.360;6.290;2024-02-26T01:08:49;3.80;;;1.15;;
84246;SDS011;74385;53.360;6.290;2024-02-26T01:11:15;2.78;;;1.80;;
84246;SDS011;74385;53.360;6.290;2024-02-26T01:13:41;4.32;;;1.55;;
84246;SDS011;74385;53.360;6.290;2024-02-26T01:16:07;2.75;;;1.70;;
84246;SDS011;74385;53.360;6.290;2024-02-26T01:18:33;1.60;;;1.10;;
84246;SDS011;74385;53.360;6.290;2024-02-26T01:20:59;1.73;;;1.30;;
84246;SDS011;74385;53.360;6.290;2024-02-26T01:23:25;2.42;;;0.90;;
84246;SDS011;74385;53.360;6.290;2024-02-26T01:25:52;2.67;;;1.02;;
84246;SDS011;74385;53.360;6.290;2024-02-26T01:28:18;2.95;;;0.93;;
84246;SDS011;74385;53.360;6.290;2024-02-26T01:30:44;2.17;;;1.00;;
84246;SDS011;74385;53.360;6.290;2024-02-26T01:33:10;3.72;;;1.30;;
84246;SDS011;74385;53.360;6.290;2024-02-26T01:35:36;1.23;;;1.13;;
84246;SDS011;74385;53.360;6.290;2024-02-26T01:38:02;1.60;;;0.93;;
84246;SDS011;74385;53.360;6.290;2024-02-26T01:40:28;1.83;;;0.93;;
84246;SDS011;74385;53.360;6.290;2024-02-26T01:42:55;2.05;;;1.17;;
84246;SDS011;74385;53.360;6.290;2024-02-26T01:45:22;1.42;;;1.10;;
84246;SDS011;74385;53.360;6.290;2024-02-26T01:50:17;1.00;;;0.90;;
84246;SDS011;74385;53.360;6.290;2024-02-26T01:52:47;1.23;;;0.90;;
84246;SDS011;74385;53.360;6.290;2024-02-26T01:55:14;1.48;;;1.00;;
84246;SDS011;74385;53.360;6.290;2024-02-26T01:57:42;1.52;;;1.10;;
84246;SDS011;74385;53.360;6.290;2024-02-26T02:00:09;2.78;;;1.30;;
84246;SDS011;74385;53.360;6.290;2024-02-26T02:02:35;2.22;;;0.93;;
84246;SDS011;74385;53.360;6.290;2024-02-26T02:05:01;1.90;;;1.02;;
84246;SDS011;74385;53.360;6.290;2024-02-26T02:07:28;3.03;;;1.25;;
84246;SDS011;74385;53.360;6.290;2024-02-26T02:09:54;1.33;;;1.23;;
84246;SDS011;74385;53.360;6.290;2024-02-26T02:12:21;2.58;;;1.50;;
84246;SDS011;74385;53.360;6.290;2024-02-26T02:14:47;2.88;;;1.10;;
84246;SDS011;74385;53.360;6.290;2024-02-26T02:17:13;2.05;;;1.40;;
84246;SDS011;74385;53.360;6.290;2024-02-26T02:19:39;2.65;;;1.35;;
84246;SDS011;74385;53.360;6.290;2024-02-26T02:22:05;1.67;;;1.17;;
84246;SDS011;74385;53.360;6.290;2024-02-26T02:24:32;1.60;;;1.25;;
84246;SDS011;74385;53.360;6.290;2024-02-26T02:26:58;2.40;;;1.23;;
84246;SDS011;74385;53.360;6.290;2024-02-26T02:29:24;3.25;;;1.73;;
84246;SDS011;74385;53.360;6.290;2024-02-26T02:31:52;3.15;;;1.73;;
84246;SDS011;74385;53.360;6.290;2024-02-26T02:34:19;2.08;;;1.30;;
84246;SDS011;74385;53.360;6.290;2024-02-26T02:36:51;1.10;;;1.00;;
84246;SDS011;74385;53.360;6.290;2024-02-26T02:39:18;1.48;;;1.30;;
84246;SDS011;74385;53.360;6.290;2024-02-26T02:41:44;2.40;;;1.45;;
84246;SDS011;74385;53.360;6.290;2024-02-26T02:44:10;2.35;;;1.75;;
84246;SDS011;74385;53.360;6.290;2024-02-26T02:46:36;2.55;;;1.92;;
84246;SDS011;74385;53.360;6.290;2024-02-26T02:49:09;2.45;;;1.55;;
84246;SDS011;74385;53.360;6.290;2024-02-26T02:51:35;2.10;;;1.50;;
84246;SDS011;74385;53.360;6.290;2024-02-26T02:54:02;2.30;;;1.40;;
84246;SDS011;74385;53.360;6.290;2024-02-26T02:56:29;3.97;;;1.65;;
84246;SDS011;74385;53.360;6.290;2024-02-26T02:58:55;2.40;;;1.60;;
84246;SDS011;74385;53.360;6.290;2024-02-26T03:01:21;2.60;;;1.52;;
84246;SDS011;74385;53.360;6.290;2024-02-26T03:03:47;2.58;;;1.73;;
84246;SDS011;74385;53.360;6.290;2024-02-26T03:06:13;3.03;;;1.40;;
84246;SDS011;74385;53.360;6.290;2024-02-26T03:08:39;3.33;;;1.70;;
84246;SDS011;74385;53.360;6.290;2024-02-26T03:11:07;2.85;;;1.75;;
84246;SDS011;74385;53.360;6.290;2024-02-26T03:13:33;4.70;;;1.80;;
84246;SDS011;74385;53.360;6.290;2024-02-26T03:16:03;3.72;;;1.58;;
84246;SDS011;74385;53.360;6.290;2024-02-26T03:18:29;5.40;;;1.83;;
84246;SDS011;74385;53.360;6.290;2024-02-26T03:20:56;2.35;;;2.05;;
84246;SDS011;74385;53.360;6.290;2024-02-26T03:23:22;1.90;;;1.52;;
84246;SDS011;74385;53.360;6.290;2024-02-26T03:25:48;3.65;;;2.20;;
84246;SDS011;74385;53.360;6.290;2024-02-26T03:28:14;5.07;;;1.88;;
84246;SDS011;74385;53.360;6.290;2024-02-26T03:30:40;1.83;;;1.38;;
84246;SDS011;74385;53.360;6.290;2024-02-26T03:33:06;3.55;;;1.77;;
84246;SDS011;74385;53.360;6.290;2024-02-26T03:35:32;2.22;;;1.63;;
84246;SDS011;74385;53.360;6.290;2024-02-26T03:37:58;3.30;;;2.17;;
84246;SDS011;74385;53.360;6.290;2024-02-26T03:40:24;4.93;;;2.30;;
84246;SDS011;74385;53.360;6.290;2024-02-26T03:42:51;3.72;;;2.40;;
84246;SDS011;74385;53.360;6.290;2024-02-26T03:45:19;3.47;;;2.00;;
84246;SDS011;74385;53.360;6.290;2024-02-26T03:47:45;5.68;;;2.10;;
84246;SDS011;74385;53.360;6.290;2024-02-26T03:50:11;4.60;;;2.00;;
84246;SDS011;74385;53.360;6.290;2024-02-26T03:52:37;2.50;;;1.92;;
84246;SDS011;74385;53.360;6.290;2024-02-26T03:55:03;3.67;;;1.83;;
84246;SDS011;74385;53.360;6.290;2024-02-26T03:57:29;3.35;;;1.77;;
84246;SDS011;74385;53.360;6.290;2024-02-26T03:59:55;5.13;;;2.03;;
84246;SDS011;74385;53.360;6.290;2024-02-26T04:02:22;4.78;;;2.05;;
84246;SDS011;74385;53.360;6.290;2024-02-26T04:04:48;3.75;;;2.30;;
84246;SDS011;74385;53.360;6.290;2024-02-26T04:07:14;2.20;;;2.00;;
84246;SDS011;74385;53.360;6.290;2024-02-26T04:09:41;4.95;;;2.03;;
84246;SDS011;74385;53.360;6.290;2024-02-26T04:12:08;3.00;;;1.83;;
84246;SDS011;74385;53.360;6.290;2024-02-26T04:14:35;2.67;;;1.38;;
84246;SDS011;74385;53.360;6.290;2024-02-26T04:17:02;2.15;;;1.13;;
84246;SDS011;74385;53.360;6.290;2024-02-26T04:19:28;1.70;;;0.90;;
84246;SDS011;74385;53.360;6.290;2024-02-26T04:21:54;1.75;;;1.30;;
84246;SDS011;74385;53.360;6.290;2024-02-26T04:24:20;2.13;;;1.00;;
84246;SDS011;74385;53.360;6.290;2024-02-26T04:26:46;0.73;;;0.60;;
84246;SDS011;74385;53.360;6.290;2024-02-26T04:29:14;3.70;;;1.20;;
84246;SDS011;74385;53.360;6.290;2024-02-26T04:31:40;1.95;;;1.20;;
84246;SDS011;74385;53.360;6.290;2024-02-26T04:34:08;2.10;;;0.90;;
84246;SDS011;74385;53.360;6.290;2024-02-26T04:36:34;2.75;;;1.27;;
84246;SDS011;74385;53.360;6.290;2024-02-26T04:39:00;2.40;;;1.10;;
84246;SDS011;74385;53.360;6.290;2024-02-26T04:41:26;3.53;;;1.13;;
84246;SDS011;74385;53.360;6.290;2024-02-26T04:43:52;2.67;;;0.80;;
84246;SDS011;74385;53.360;6.290;2024-02-26T04:46:18;3.47;;;0.85;;
84246;SDS011;74385;53.360;6.290;2024-02-26T04:48:44;3.47;;;0.90;;
84246;SDS011;74385;53.360;6.290;2024-02-26T04:51:11;2.72;;;1.10;;
84246;SDS011;74385;53.360;6.290;2024-02-26T04:53:37;1.13;;;1.00;;
84246;SDS011;74385;53.360;6.290;2024-02-26T04:56:03;0.82;;;0.80;;
84246;SDS011;74385;53.360;6.290;2024-02-26T04:58:30;1.10;;;1.00;;
84246;SDS011;74385;53.360;6.290;2024-02-26T05:00:56;0.88;;;0.65;;
84246;SDS011;74385;53.360;6.290;2024-02-26T05:03:22;2.67;;;0.90;;
84246;SDS011;74385;53.360;6.290;2024-02-26T05:05:48;1.20;;;0.82;;
84246;SDS011;74385;53.360;6.290;2024-02-26T05:08:14;2.35;;;0.70;;
84246;SDS011;74385;53.360;6.290;2024-02-26T05:10:40;2.65;;;0.80;;
84246;SDS011;74385;53.360;6.290;2024-02-26T05:13:08;1.05;;;0.60;;
84246;SDS011;74385;53.360;6.290;2024-02-26T05:15:34;0.47;;;0.30;;
84246;SDS011;74385;53.360;6.290;2024-02-26T05:18:01;1.95;;;0.70;;
84246;SDS011;74385;53.360;6.290;2024-02-26T05:20:27;2.85;;;0.52;;
84246;SDS011;74385;53.360;6.290;2024-02-26T05:22:53;2.42;;;0.60;;
84246;SDS011;74385;53.360;6.290;2024-02-26T05:25:19;0.70;;;0.60;;
84246;SDS011;74385;53.360;6.290;2024-02-26T05:27:45;0.57;;;0.47;;
84246;SDS011;74385;53.360;6.290;2024-02-26T05:30:11;1.40;;;0.75;;
84246;SDS011;74385;53.360;6.290;2024-02-26T05:32:38;2.50;;;0.60;;
84246;SDS011;74385;53.360;6.290;2024-02-26T05:35:04;0.80;;;0.80;;
84246;SDS011;74385;53.360;6.290;2024-02-26T05:37:30;2.75;;;0.55;;
84246;SDS011;74385;53.360;6.290;2024-02-26T05:39:57;1.55;;;0.50;;
84246;SDS011;74385;53.360;6.290;2024-02-26T05:42:23;0.50;;;0.32;;
84246;SDS011;74385;53.360;6.290;2024-02-26T05:44:49;1.65;;;0.50;;
84246;SDS011;74385;53.360;6.290;2024-02-26T05:47:15;0.45;;;0.40;;
84246;SDS011;74385;53.360;6.290;2024-02-26T05:49:42;2.47;;;0.50;;
84246;SDS011;74385;53.360;6.290;2024-02-26T05:52:08;1.08;;;0.80;;
84246;SDS011;74385;53.360;6.290;2024-02-26T05:54:34;1.58;;;0.70;;
84246;SDS011;74385;53.360;6.290;2024-02-26T05:57:01;1.08;;;0.40;;
84246;SDS011;74385;53.360;6.290;2024-02-26T05:59:27;0.73;;;0.52;;
84246;SDS011;74385;53.360;6.290;2024-02-26T06:01:53;4.10;;;0.63;;
84246;SDS011;74385;53.360;6.290;2024-02-26T06:04:19;1.10;;;0.50;;
84246;SDS011;74385;53.360;6.290;2024-02-26T06:06:45;3.45;;;0.45;;
84246;SDS011;74385;53.360;6.290;2024-02-26T06:09:11;4.28;;;0.80;;
84246;SDS011;74385;53.360;6.290;2024-02-26T06:11:38;4.07;;;0.40;;
84246;SDS011;74385;53.360;6.290;2024-02-26T06:14:04;3.47;;;0.40;;
84246;SDS011;74385;53.360;6.290;2024-02-26T06:16:30;0.77;;;0.40;;
84246;SDS011;74385;53.360;6.290;2024-02-26T06:18:56;2.40;;;0.60;;
84246;SDS011;74385;53.360;6.290;2024-02-26T06:21:23;1.80;;;0.50;;
84246;SDS011;74385;53.360;6.290;2024-02-26T06:23:49;1.17;;;0.50;;
84246;SDS011;74385;53.360;6.290;2024-02-26T06:26:15;3.35;;;0.60;;
84246;SDS011;74385;53.360;6.290;2024-02-26T06:28:42;0.75;;;0.50;;
84246;SDS011;74385;53.360;6.290;2024-02-26T06:31:08;1.58;;;0.70;;
84246;SDS011;74385;53.360;6.290;2024-02-26T06:33:34;1.45;;;0.63;;
84246;SDS011;74385;53.360;6.290;2024-02-26T06:36:00;2.08;;;0.90;;
84246;SDS011;74385;53.360;6.290;2024-02-26T06:38:26;0.47;;;0.45;;
84246;SDS011;74385;53.360;6.290;2024-02-26T06:40:53;2.10;;;0.80;;
84246;SDS011;74385;53.360;6.290;2024-02-26T06:43:19;1.85;;;0.98;;
84246;SDS011;74385;53.360;6.290;2024-02-26T06:45:45;3.13;;;0.98;;
84246;SDS011;74385;53.360;6.290;2024-02-26T06:48:12;3.75;;;1.10;;
84246;SDS011;74385;53.360;6.290;2024-02-26T06:50:38;3.53;;;3.22;;
84246;SDS011;74385;53.360;6.290;2024-02-26T06:53:04;0.98;;;0.60;;
84246;SDS011;74385;53.360;6.290;2024-02-26T06:55:32;1.98;;;0.90;;
84246;SDS011;74385;53.360;6.290;2024-02-26T06:57:58;1.27;;;1.15;;
84246;SDS011;74385;53.360;6.290;2024-02-26T07:00:25;3.53;;;3.22;;
84246;SDS011;74385;53.360;6.290;2024-02-26T07:02:51;1.35;;;0.93;;
84246;SDS011;74385;53.360;6.290;2024-02-26T07:05:17;3.05;;;0.75;;
84246;SDS011;74385;53.360;6.290;2024-02-26T07:07:43;2.30;;;0.60;;
84246;SDS011;74385;53.360;6.290;2024-02-26T07:10:09;0.90;;;0.50;;
84246;SDS011;74385;53.360;6.290;2024-02-26T07:12:38;2.33;;;0.90;;
84246;SDS011;74385;53.360;6.290;2024-02-26T07:15:05;6.15;;;2.90;;
84246;SDS011;74385;53.360;6.290;2024-02-26T07:17:33;2.22;;;1.27;;
84246;SDS011;74385;53.360;6.290;2024-02-26T07:19:59;2.10;;;0.90;;
84246;SDS011;74385;53.360;6.290;2024-02-26T07:22:25;1.90;;;0.55;;
84246;SDS011;74385;53.360;6.290;2024-02-26T07:24:51;1.63;;;0.70;;
84246;SDS011;74385;53.360;6.290;2024-02-26T07:27:20;1.02;;;0.90;;
84246;SDS011;74385;53.360;6.290;2024-02-26T07:29:46;1.67;;;0.95;;
84246;SDS011;74385;53.360;6.290;2024-02-26T07:32:12;2.40;;;0.90;;
84246;SDS011;74385;53.360;6.290;2024-02-26T07:34:39;2.15;;;0.88;;
84246;SDS011;74385;53.360;6.290;2024-02-26T07:37:09;1.48;;;0.75;;
84246;SDS011;74385;53.360;6.290;2024-02-26T07:39:35;3.10;;;1.02;;
84246;SDS011;74385;53.360;6.290;2024-02-26T07:42:02;1.77;;;0.70;;
84246;SDS011;74385;53.360;6.290;2024-02-26T07:44:28;1.38;;;0.80;;
84246;SDS011;74385;53.360;6.290;2024-02-26T07:46:54;2.45;;;0.75;;
84246;SDS011;74385;53.360;6.290;2024-02-26T07:49:20;2.08;;;0.80;;
84246;SDS011;74385;53.360;6.290;2024-02-26T07:51:46;1.65;;;0.73;;
84246;SDS011;74385;53.360;6.290;2024-02-26T07:54:12;2.33;;;0.80;;
84246;SDS011;74385;53.360;6.290;2024-02-26T07:56:41;2.33;;;0.82;;
84246;SDS011;74385;53.360;6.290;2024-02-26T07:59:07;1.80;;;1.00;;
84246;SDS011;74385;53.360;6.290;2024-02-26T08:01:34;2.25;;;1.00;;
84246;SDS011;74385;53.360;6.290;2024-02-26T08:04:03;2.13;;;0.50;;
84246;SDS011;74385;53.360;6.290;2024-02-26T08:06:30;0.88;;;0.50;;
84246;SDS011;74385;53.360;6.290;2024-02-26T08:08:56;4.15;;;0.80;;
84246;SDS011;74385;53.360;6.290;2024-02-26T08:11:22;2.30;;;0.68;;
84246;SDS011;74385;53.360;6.290;2024-02-26T08:13:48;3.95;;;1.02;;
84246;SDS011;74385;53.360;6.290;2024-02-26T08:16:14;0.93;;;0.50;;
84246;SDS011;74385;53.360;6.290;2024-02-26T08:18:40;2.50;;;0.60;;
84246;SDS011;74385;53.360;6.290;2024-02-26T08:21:06;2.72;;;0.90;;
84246;SDS011;74385;53.360;6.290;2024-02-26T08:23:33;3.53;;;0.70;;
84246;SDS011;74385;53.360;6.290;2024-02-26T08:25:59;1.92;;;1.15;;
84246;SDS011;74385;53.360;6.290;2024-02-26T08:28:25;1.42;;;0.50;;
84246;SDS011;74385;53.360;6.290;2024-02-26T08:30:51;2.78;;;0.90;;
84246;SDS011;74385;53.360;6.290;2024-02-26T08:33:17;1.75;;;0.82;;
84246;SDS011;74385;53.360;6.290;2024-02-26T08:35:44;1.90;;;0.98;;
84246;SDS011;74385;53.360;6.290;2024-02-26T08:38:10;3.03;;;1.00;;
84246;SDS011;74385;53.360;6.290;2024-02-26T08:40:36;3.17;;;0.82;;
84246;SDS011;74385;53.360;6.290;2024-02-26T08:43:02;3.08;;;1.10;;
84246;SDS011;74385;53.360;6.290;2024-02-26T08:45:28;3.67;;;1.20;;
84246;SDS011;74385;53.360;6.290;2024-02-26T08:47:54;2.13;;;1.00;;
84246;SDS011;74385;53.360;6.290;2024-02-26T08:50:21;5.00;;;0.80;;
84246;SDS011;74385;53.360;6.290;2024-02-26T08:52:47;3.42;;;1.35;;
84246;SDS011;74385;53.360;6.290;2024-02-26T08:55:16;3.10;;;0.85;;
84246;SDS011;74385;53.360;6.290;2024-02-26T08:57:42;2.92;;;1.42;;
84246;SDS011;74385;53.360;6.290;2024-02-26T09:00:08;4.20;;;1.17;;
84246;SDS011;74385;53.360;6.290;2024-02-26T09:02:34;4.03;;;0.75;;
84246;SDS011;74385;53.360;6.290;2024-02-26T09:05:00;3.53;;;0.88;;
84246;SDS011;74385;53.360;6.290;2024-02-26T09:07:26;1.80;;;1.20;;
84246;SDS011;74385;53.360;6.290;2024-02-26T09:09:52;1.75;;;0.75;;
84246;SDS011;74385;53.360;6.290;2024-02-26T09:12:18;7.65;;;1.33;;
84246;SDS011;74385;53.360;6.290;2024-02-26T09:14:44;4.65;;;1.30;;
84246;SDS011;74385;53.360;6.290;2024-02-26T09:17:10;3.97;;;1.10;;
84246;SDS011;74385;53.360;6.290;2024-02-26T09:19:36;3.85;;;0.90;;
84246;SDS011;74385;53.360;6.290;2024-02-26T09:22:03;1.83;;;0.68;;
84246;SDS011;74385;53.360;6.290;2024-02-26T09:24:29;4.07;;;0.70;;
84246;SDS011;74385;53.360;6.290;2024-02-26T09:26:55;2.40;;;1.10;;
84246;SDS011;74385;53.360;6.290;2024-02-26T09:29:21;3.95;;;1.17;;
84246;SDS011;74385;53.360;6.290;2024-02-26T09:31:47;3.53;;;0.90;;
84246;SDS011;74385;53.360;6.290;2024-02-26T09:34:13;3.10;;;1.10;;
84246;SDS011;74385;53.360;6.290;2024-02-26T09:36:39;1.35;;;0.88;;
84246;SDS011;74385;53.360;6.290;2024-02-26T09:39:05;2.15;;;0.90;;
84246;SDS011;74385;53.360;6.290;2024-02-26T09:41:36;2.17;;;0.80;;
84246;SDS011;74385;53.360;6.290;2024-02-26T09:44:02;2.75;;;0.80;;
84246;SDS011;74385;53.360;6.290;2024-02-26T09:46:30;1.05;;;0.50;;
84246;SDS011;74385;53.360;6.290;2024-02-26T09:48:56;1.13;;;0.90;;
84246;SDS011;74385;53.360;6.290;2024-02-26T09:51:22;2.88;;;1.08;;
84246;SDS011;74385;53.360;6.290;2024-02-26T09:53:52;2.17;;;0.90;;
84246;SDS011;74385;53.360;6.290;2024-02-26T09:56:18;4.75;;;0.80;;
84246;SDS011;74385;53.360;6.290;2024-02-26T09:58:45;1.08;;;0.70;;
84246;SDS011;74385;53.360;6.290;2024-02-26T10:03:42;1.85;;;0.50;;
84246;SDS011;74385;53.360;6.290;2024-02-26T10:06:13;0.95;;;0.60;;
84246;SDS011;74385;53.360;6.290;2024-02-26T10:08:39;3.00;;;0.80;;
84246;SDS011;74385;53.360;6.290;2024-02-26T10:11:06;1.27;;;0.98;;
84246;SDS011;74385;53.360;6.290;2024-02-26T10:13:34;1.25;;;0.95;;
84246;SDS011;74385;53.360;6.290;2024-02-26T10:16:01;2.03;;;1.10;;
84246;SDS011;74385;53.360;6.290;2024-02-26T10:18:44;1.20;;;0.88;;
84246;SDS011;74385;53.360;6.290;2024-02-26T10:21:10;2.00;;;0.70;;
84246;SDS011;74385;53.360;6.290;2024-02-26T10:23:36;3.22;;;0.95;;
84246;SDS011;74385;53.360;6.290;2024-02-26T10:26:02;2.15;;;0.95;;
84246;SDS011;74385;53.360;6.290;2024-02-26T10:28:30;2.10;;;1.23;;
84246;SDS011;74385;53.360;6.290;2024-02-26T10:30:57;1.65;;;1.30;;
84246;SDS011;74385;53.360;6.290;2024-02-26T10:33:24;2.47;;;1.30;;
84246;SDS011;74385;53.360;6.290;2024-02-26T10:35:50;3.40;;;1.52;;
84246;SDS011;74385;53.360;6.290;2024-02-26T10:38:16;2.38;;;1.38;;
84246;SDS011;74385;53.360;6.290;2024-02-26T10:40:46;3.25;;;1.25;;
84246;SDS011;74385;53.360;6.290;2024-02-26T10:43:12;2.67;;;1.55;;
84246;SDS011;74385;53.360;6.290;2024-02-26T10:45:39;2.38;;;1.50;;
84246;SDS011;74385;53.360;6.290;2024-02-26T10:48:14;3.05;;;1.38;;
84246;SDS011;74385;53.360;6.290;2024-02-26T10:50:40;4.13;;;1.63;;
84246;SDS011;74385;53.360;6.290;2024-02-26T10:53:10;4.05;;;1.98;;
84246;SDS011;74385;53.360;6.290;2024-02-26T10:55:40;4.15;;;1.63;;
84246;SDS011;74385;53.360;6.290;2024-02-26T10:58:06;4.00;;;1.83;;
84246;SDS011;74385;53.360;6.290;2024-02-26T11:00:34;3.22;;;1.60;;
84246;SDS011;74385;53.360;6.290;2024-02-26T11:03:01;3.85;;;2.55;;
84246;SDS011;74385;53.360;6.290;2024-02-26T11:05:28;3.80;;;2.53;;
84246;SDS011;74385;53.360;6.290;2024-02-26T11:07:54;4.45;;;2.10;;
84246;SDS011;74385;53.360;6.290;2024-02-26T11:10:22;2.38;;;2.10;;
84246;SDS011;74385;53.360;6.290;2024-02-26T11:12:48;6.22;;;2.58;;
84246;SDS011;74385;53.360;6.290;2024-02-26T11:15:15;2.53;;;1.52;;
84246;SDS011;74385;53.360;6.290;2024-02-26T11:17:43;2.95;;;2.63;;
84246;SDS011;74385;53.360;6.290;2024-02-26T11:20:10;4.70;;;2.17;;
84246;SDS011;74385;53.360;6.290;2024-02-26T11:22:37;5.45;;;2.97;;
84246;SDS011;74385;53.360;6.290;2024-02-26T11:25:04;5.68;;;2.55;;
84246;SDS011;74385;53.360;6.290;2024-02-26T11:27:32;4.30;;;2.47;;
84246;SDS011;74385;53.360;6.290;2024-02-26T11:30:01;7.80;;;2.40;;
84246;SDS011;74385;53.360;6.290;2024-02-26T11:32:30;5.75;;;2.72;;
84246;SDS011;74385;53.360;6.290;2024-02-26T11:34:57;3.88;;;2.95;;
84246;SDS011;74385;53.360;6.290;2024-02-26T11:37:24;5.30;;;3.35;;
84246;SDS011;74385;53.360;6.290;2024-02-26T11:39:51;3.55;;;2.50;;
84246;SDS011;74385;53.360;6.290;2024-02-26T11:42:17;3.92;;;2.83;;
84246;SDS011;74385;53.360;6.290;2024-02-26T11:44:48;7.15;;;2.67;;
84246;SDS011;74385;53.360;6.290;2024-02-26T11:47:18;8.90;;;3.20;;
84246;SDS011;74385;53.360;6.290;2024-02-26T11:49:44;5.85;;;2.88;;
84246;SDS011;74385;53.360;6.290;2024-02-26T11:52:11;4.63;;;2.53;;
84246;SDS011;74385;53.360;6.290;2024-02-26T11:59:53;4.65;;;2.65;;
84246;SDS011;74385;53.360;6.290;2024-02-26T12:05:31;8.68;;;2.70;;
84246;SDS011;74385;53.360;6.290;2024-02-26T12:10:40;3.78;;;2.88;;
84246;SDS011;74385;53.360;6.290;2024-02-26T12:13:15;4.40;;;2.30;;
84246;SDS011;74385;53.360;6.290;2024-02-26T12:15:44;8.23;;;2.92;;
84246;SDS011;74385;53.360;6.290;2024-02-26T12:18:15;6.20;;;2.78;;
84246;SDS011;74385;53.360;6.290;2024-02-26T12:20:42;5.15;;;3.20;;
84246;SDS011;74385;53.360;6.290;2024-02-26T12:23:15;6.07;;;3.95;;
84246;SDS011;74385;53.360;6.290;2024-02-26T12:25:46;3.65;;;2.78;;
84246;SDS011;74385;53.360;6.290;2024-02-26T12:28:14;5.95;;;2.78;;
84246;SDS011;74385;53.360;6.290;2024-02-26T12:30:40;5.47;;;2.33;;
84246;SDS011;74385;53.360;6.290;2024-02-26T12:33:07;5.30;;;2.53;;
84246;SDS011;74385;53.360;6.290;2024-02-26T12:35:34;3.38;;;1.88;;
84246;SDS011;74385;53.360;6.290;2024-02-26T12:38:01;6.75;;;2.22;;
84246;SDS011;74385;53.360;6.290;2024-02-26T12:40:29;7.93;;;3.58;;
84246;SDS011;74385;53.360;6.290;2024-02-26T12:42:56;6.03;;;2.85;;
84246;SDS011;74385;53.360;6.290;2024-02-26T12:45:24;6.40;;;2.50;;
84246;SDS011;74385;53.360;6.290;2024-02-26T12:47:51;6.25;;;2.40;;
84246;SDS011;74385;53.360;6.290;2024-02-26T12:50:17;4.47;;;2.05;;
84246;SDS011;74385;53.360;6.290;2024-02-26T12:52:45;3.55;;;2.50;;
84246;SDS011;74385;53.360;6.290;2024-02-26T12:55:16;4.88;;;2.40;;
84246;SDS011;74385;53.360;6.290;2024-02-26T12:57:43;2.90;;;1.67;;
84246;SDS011;74385;53.360;6.290;2024-02-26T13:00:13;1.70;;;1.50;;
84246;SDS011;74385;53.360;6.290;2024-02-26T13:02:41;2.45;;;1.80;;
84246;SDS011;74385;53.360;6.290;2024-02-26T13:05:10;1.98;;;1.63;;
84246;SDS011;74385;53.360;6.290;2024-02-26T13:07:42;2.72;;;1.67;;
84246;SDS011;74385;53.360;6.290;2024-02-26T13:10:10;3.00;;;1.80;;
84246;SDS011;74385;53.360;6.290;2024-02-26T13:12:45;4.28;;;1.80;;
84246;SDS011;74385;53.360;6.290;2024-02-26T13:15:15;4.40;;;1.73;;
84246;SDS011;74385;53.360;6.290;2024-02-26T13:17:42;2.25;;;1.50;;
84246;SDS011;74385;53.360;6.290;2024-02-26T13:20:08;5.30;;;2.10;;
84246;SDS011;74385;53.360;6.290;2024-02-26T13:22:35;4.35;;;2.15;;
84246;SDS011;74385;53.360;6.290;2024-02-26T13:25:01;5.70;;;1.98;;
84246;SDS011;74385;53.360;6.290;2024-02-26T13:27:28;4.18;;;2.05;;
84246;SDS011;74385;53.360;6.290;2024-02-26T13:30:15;2.70;;;2.00;;
84246;SDS011;74385;53.360;6.290;2024-02-26T13:32:40;4.55;;;2.30;;
84246;SDS011;74385;53.360;6.290;2024-02-26T13:35:08;2.30;;;1.88;;
84246;SDS011;74385;53.360;6.290;2024-02-26T13:37:35;3.17;;;1.83;;
84246;SDS011;74385;53.360;6.290;2024-02-26T13:40:04;4.10;;;1.90;;
84246;SDS011;74385;53.360;6.290;2024-02-26T13:42:32;3.10;;;1.80;;
84246;SDS011;74385;53.360;6.290;2024-02-26T13:44:58;2.90;;;1.80;;
84246;SDS011;74385;53.360;6.290;2024-02-26T13:47:24;2.72;;;1.50;;
84246;SDS011;74385;53.360;6.290;2024-02-26T13:49:50;3.75;;;1.63;;
84246;SDS011;74385;53.360;6.290;2024-02-26T13:52:16;2.42;;;1.65;;
84246;SDS011;74385;53.360;6.290;2024-02-26T13:54:42;2.88;;;1.73;;
84246;SDS011;74385;53.360;6.290;2024-02-26T13:57:08;2.33;;;1.38;;
84246;SDS011;74385;53.360;6.290;2024-02-26T13:59:34;2.90;;;1.90;;
84246;SDS011;74385;53.360;6.290;2024-02-26T14:02:00;2.45;;;1.67;;
84246;SDS011;74385;53.360;6.290;2024-02-26T14:04:26;3.50;;;2.03;;
84246;SDS011;74385;53.360;6.290;2024-02-26T14:06:52;3.22;;;1.98;;
84246;SDS011;74385;53.360;6.290;2024-02-26T14:09:19;4.90;;;2.00;;
84246;SDS011;74385;53.360;6.290;2024-02-26T14:11:45;5.20;;;2.17;;
84246;SDS011;74385;53.360;6.290;2024-02-26T14:14:11;5.70;;;1.88;;
84246;SDS011;74385;53.360;6.290;2024-02-26T14:16:37;4.97;;;1.20;;
84246;SDS011;74385;53.360;6.290;2024-02-26T14:19:03;6.65;;;1.90;;
84246;SDS011;74385;53.360;6.290;2024-02-26T14:21:29;4.30;;;1.90;;
84246;SDS011;74385;53.360;6.290;2024-02-26T14:23:55;2.92;;;1.50;;
84246;SDS011;74385;53.360;6.290;2024-02-26T14:26:22;5.07;;;1.92;;
84246;SDS011;74385;53.360;6.290;2024-02-26T14:28:48;2.28;;;1.40;;
84246;SDS011;74385;53.360;6.290;2024-02-26T14:31:17;3.42;;;1.50;;
84246;SDS011;74385;53.360;6.290;2024-02-26T14:33:43;4.72;;;1.42;;
84246;SDS011;74385;53.360;6.290;2024-02-26T14:36:10;1.50;;;1.40;;
84246;SDS011;74385;53.360;6.290;2024-02-26T14:38:36;2.05;;;1.13;;
84246;SDS011;74385;53.360;6.290;2024-02-26T14:41:04;3.88;;;1.98;;
84246;SDS011;74385;53.360;6.290;2024-02-26T14:43:31;1.17;;;0.90;;
84246;SDS011;74385;53.360;6.290;2024-02-26T14:45:57;3.05;;;1.30;;
84246;SDS011;74385;53.360;6.290;2024-02-26T14:48:27;4.18;;;1.15;;
84246;SDS011;74385;53.360;6.290;2024-02-26T14:50:54;2.22;;;1.30;;
84246;SDS011;74385;53.360;6.290;2024-02-26T14:53:20;2.72;;;0.85;;
84246;SDS011;74385;53.360;6.290;2024-02-26T14:55:47;1.15;;;0.70;;
84246;SDS011;74385;53.360;6.290;2024-02-26T14:58:13;1.13;;;0.63;;
84246;SDS011;74385;53.360;6.290;2024-02-26T15:00:39;3.20;;;0.80;;